sensor_id;sensor_type;location;lat;lon;timestamp;P1;durP1;ratioP1;P2;durP2;ratioP2
7647;SDS011;3866;48.020;11.720;2023-12-28T00:01:54;1.70;;;1.40;;
7647;SDS011;3866;48.020;11.720;2023-12-28T00:04:22;4.37;;;2.87;;
7647;SDS011;3866;48.020;11.720;2023-12-28T00:06:49;4.10;;;2.57;;
7647;SDS011;3866;48.020;11.720;2023-12-28T00:09:19;1.97;;;1.77;;
7647;SDS011;3866;48.020;11.720;2023-12-28T00:11:46;2.13;;;1.30;;
7647;SDS011;3866;48.020;11.720;2023-12-28T00:14:12;1.60;;;1.20;;
7647;SDS011;3866;48.020;11.720;2023-12-28T00:16:41;1.63;;;1.53;;
7647;SDS011;3866;48.020;11.720;2023-12-28T00:19:08;2.13;;;1.93;;
7647;SDS011;3866;48.020;11.720;2023-12-28T00:21:34;3.67;;;1.53;;
7647;SDS011;3866;48.020;11.720;2023-12-28T00:24:01;1.67;;;1.57;;
7647;SDS011;3866;48.020;11.720;2023-12-28T00:26:28;1.30;;;1.20;;
7647;SDS011;3866;48.020;11.720;2023-12-28T00:28:55;1.40;;;1.30;;
7647;SDS011;3866;48.020;11.720;2023-12-28T00:31:22;1.33;;;1.20;;
7647;SDS011;3866;48.020;11.720;2023-12-28T00:33:51;1.40;;;1.10;;
7647;SDS011;3866;48.020;11.720;2023-12-28T00:36:18;2.17;;;0.93;;
7647;SDS011;3866;48.020;11.720;2023-12-28T00:38:45;1.27;;;0.90;;
7647;SDS011;3866;48.020;11.720;2023-12-28T00:41:12;1.20;;;1.10;;
7647;SDS011;3866;48.020;11.720;2023-12-28T00:43:39;1.20;;;1.10;;
7647;SDS011;3866;48.020;11.720;2023-12-28T00:46:06;1.00;;;0.90;;
7647;SDS011;3866;48.020;11.720;2023-12-28T00:48:33;1.20;;;1.00;;
7647;SDS011;3866;48.020;11.720;2023-12-28T00:51:01;0.83;;;0.83;;
7647;SDS011;3866;48.020;11.720;2023-12-28T00:53:28;1.70;;;1.27;;
7647;SDS011;3866;48.020;11.720;2023-12-28T00:55:55;1.37;;;1.10;;
7647;SDS011;3866;48.020;11.720;2023-12-28T00:58:22;1.10;;;1.00;;
7647;SDS011;3866;48.020;11.720;2023-12-28T01:00:50;1.50;;;1.03;;
7647;SDS011;3866;48.020;11.720;2023-12-28T01:03:18;1.20;;;1.03;;
7647;SDS011;3866;48.020;11.720;2023-12-28T01:05:45;1.00;;;0.90;;
7647;SDS011;3866;48.020;11.720;2023-12-28T01:08:17;0.93;;;0.80;;
7647;SDS011;3866;48.020;11.720;2023-12-28T01:10:44;1.60;;;1.30;;
7647;SDS011;3866;48.020;11.720;2023-12-28T01:13:12;0.90;;;0.90;;
7647;SDS011;3866;48.020;11.720;2023-12-28T01:15:39;0.63;;;0.63;;
7647;SDS011;3866;48.020;11.720;2023-12-28T01:18:06;0.90;;;0.60;;
7647;SDS011;3866;48.020;11.720;2023-12-28T01:20:32;0.80;;;0.80;;
7647;SDS011;3866;48.020;11.720;2023-12-28T01:22:59;1.03;;;0.70;;
7647;SDS011;3866;48.020;11.720;2023-12-28T01:25:28;1.23;;;0.70;;
7647;SDS011;3866;48.020;11.720;2023-12-28T01:27:56;2.63;;;1.70;;
7647;SDS011;3866;48.020;11.720;2023-12-28T01:30:23;2.13;;;1.50;;
7647;SDS011;3866;48.020;11.720;2023-12-28T01:32:51;0.87;;;0.77;;
7647;SDS011;3866;48.020;11.720;2023-12-28T01:35:18;0.87;;;0.87;;
7647;SDS011;3866;48.020;11.720;2023-12-28T01:37:46;1.90;;;1.00;;
7647;SDS011;3866;48.020;11.720;2023-12-28T01:40:15;1.23;;;0.97;;
7647;SDS011;3866;48.020;11.720;2023-12-28T01:42:44;1.57;;;1.17;;
7647;SDS011;3866;48.020;11.720;2023-12-28T01:45:11;1.20;;;0.93;;
7647;SDS011;3866;48.020;11.720;2023-12-28T01:47:38;0.73;;;0.73;;
7647;SDS011;3866;48.020;11.720;2023-12-28T01:50:08;1.60;;;1.20;;
7647;SDS011;3866;48.020;11.720;2023-12-28T01:52:36;1.20;;;1.10;;
7647;SDS011;3866;48.020;11.720;2023-12-28T01:55:04;0.97;;;0.87;;
7647;SDS011;3866;48.020;11.720;2023-12-28T01:57:31;1.40;;;0.80;;
7647;SDS011;3866;48.020;11.720;2023-12-28T02:00:00;2.70;;;1.20;;
7647;SDS011;3866;48.020;11.720;2023-12-28T02:02:30;1.10;;;0.80;;
7647;SDS011;3866;48.020;11.720;2023-12-28T02:04:57;1.87;;;1.20;;
7647;SDS011;3866;48.020;11.720;2023-12-28T02:07:24;1.43;;;1.23;;
7647;SDS011;3866;48.020;11.720;2023-12-28T02:09:52;1.90;;;1.33;;
7647;SDS011;3866;48.020;11.720;2023-12-28T02:12:19;1.07;;;0.93;;
7647;SDS011;3866;48.020;11.720;2023-12-28T02:14:45;1.00;;;0.90;;
7647;SDS011;3866;48.020;11.720;2023-12-28T02:17:15;1.80;;;1.10;;
7647;SDS011;3866;48.020;11.720;2023-12-28T02:19:49;1.63;;;0.90;;
7647;SDS011;3866;48.020;11.720;2023-12-28T02:22:18;1.33;;;0.87;;
7647;SDS011;3866;48.020;11.720;2023-12-28T02:24:55;1.13;;;0.80;;
7647;SDS011;3866;48.020;11.720;2023-12-28T02:27:30;0.93;;;0.83;;
7647;SDS011;3866;48.020;11.720;2023-12-28T02:29:57;1.23;;;1.00;;
7647;SDS011;3866;48.020;11.720;2023-12-28T02:32:26;1.00;;;0.90;;
7647;SDS011;3866;48.020;11.720;2023-12-28T02:35:04;0.80;;;0.67;;
7647;SDS011;3866;48.020;11.720;2023-12-28T02:37:40;0.70;;;0.70;;
7647;SDS011;3866;48.020;11.720;2023-12-28T02:40:11;1.33;;;0.80;;
7647;SDS011;3866;48.020;11.720;2023-12-28T02:42:41;0.73;;;0.70;;
7647;SDS011;3866;48.020;11.720;2023-12-28T02:45:08;0.80;;;0.70;;
7647;SDS011;3866;48.020;11.720;2023-12-28T02:47:35;2.10;;;0.90;;
7647;SDS011;3866;48.020;11.720;2023-12-28T02:50:03;2.10;;;0.90;;
7647;SDS011;3866;48.020;11.720;2023-12-28T02:52:30;3.37;;;2.10;;
7647;SDS011;3866;48.020;11.720;2023-12-28T02:54:57;2.07;;;1.77;;
7647;SDS011;3866;48.020;11.720;2023-12-28T02:57:27;2.33;;;1.20;;
7647;SDS011;3866;48.020;11.720;2023-12-28T02:59:54;1.40;;;1.00;;
7647;SDS011;3866;48.020;11.720;2023-12-28T03:02:23;1.60;;;0.73;;
7647;SDS011;3866;48.020;11.720;2023-12-28T03:04:51;1.53;;;0.70;;
7647;SDS011;3866;48.020;11.720;2023-12-28T03:07:19;1.07;;;0.90;;
7647;SDS011;3866;48.020;11.720;2023-12-28T03:09:46;0.83;;;0.60;;
7647;SDS011;3866;48.020;11.720;2023-12-28T03:12:13;0.80;;;0.80;;
7647;SDS011;3866;48.020;11.720;2023-12-28T03:14:42;0.80;;;0.80;;
7647;SDS011;3866;48.020;11.720;2023-12-28T03:17:09;0.73;;;0.73;;
7647;SDS011;3866;48.020;11.720;2023-12-28T03:19:38;1.73;;;0.67;;
7647;SDS011;3866;48.020;11.720;2023-12-28T03:22:05;0.50;;;0.50;;
7647;SDS011;3866;48.020;11.720;2023-12-28T03:24:31;1.10;;;1.00;;
7647;SDS011;3866;48.020;11.720;2023-12-28T03:26:58;0.87;;;0.80;;
7647;SDS011;3866;48.020;11.720;2023-12-28T03:29:26;1.10;;;0.70;;
7647;SDS011;3866;48.020;11.720;2023-12-28T03:31:55;3.07;;;1.37;;
7647;SDS011;3866;48.020;11.720;2023-12-28T03:34:22;1.50;;;0.70;;
7647;SDS011;3866;48.020;11.720;2023-12-28T03:36:51;1.27;;;1.00;;
7647;SDS011;3866;48.020;11.720;2023-12-28T03:39:19;2.20;;;1.67;;
7647;SDS011;3866;48.020;11.720;2023-12-28T03:41:47;0.60;;;0.60;;
7647;SDS011;3866;48.020;11.720;2023-12-28T03:44:15;2.00;;;1.47;;
7647;SDS011;3866;48.020;11.720;2023-12-28T03:46:42;1.47;;;1.00;;
7647;SDS011;3866;48.020;11.720;2023-12-28T03:49:10;1.50;;;0.83;;
7647;SDS011;3866;48.020;11.720;2023-12-28T03:51:37;1.97;;;1.10;;
7647;SDS011;3866;48.020;11.720;2023-12-28T03:54:04;4.07;;;1.03;;
7647;SDS011;3866;48.020;11.720;2023-12-28T03:56:31;0.80;;;0.80;;
7647;SDS011;3866;48.020;11.720;2023-12-28T03:59:00;1.20;;;1.10;;
7647;SDS011;3866;48.020;11.720;2023-12-28T04:01:27;1.07;;;0.77;;
7647;SDS011;3866;48.020;11.720;2023-12-28T04:03:55;2.20;;;1.33;;
7647;SDS011;3866;48.020;11.720;2023-12-28T04:06:23;1.07;;;0.57;;
7647;SDS011;3866;48.020;11.720;2023-12-28T04:08:50;0.60;;;0.60;;
7647;SDS011;3866;48.020;11.720;2023-12-28T04:11:17;1.07;;;0.60;;
7647;SDS011;3866;48.020;11.720;2023-12-28T04:13:44;1.13;;;0.40;;
7647;SDS011;3866;48.020;11.720;2023-12-28T04:16:11;0.53;;;0.37;;
7647;SDS011;3866;48.020;11.720;2023-12-28T04:18:39;0.53;;;0.40;;
7647;SDS011;3866;48.020;11.720;2023-12-28T04:21:07;0.40;;;0.40;;
7647;SDS011;3866;48.020;11.720;2023-12-28T04:23:37;2.60;;;0.37;;
7647;SDS011;3866;48.020;11.720;2023-12-28T04:26:05;0.30;;;0.30;;
7647;SDS011;3866;48.020;11.720;2023-12-28T04:28:32;1.43;;;0.20;;
7647;SDS011;3866;48.020;11.720;2023-12-28T04:31:01;1.43;;;0.50;;
7647;SDS011;3866;48.020;11.720;2023-12-28T04:33:29;0.30;;;0.30;;
7647;SDS011;3866;48.020;11.720;2023-12-28T04:35:56;2.53;;;0.30;;
7647;SDS011;3866;48.020;11.720;2023-12-28T04:38:22;0.83;;;0.50;;
7647;SDS011;3866;48.020;11.720;2023-12-28T04:40:51;0.30;;;0.20;;
7647;SDS011;3866;48.020;11.720;2023-12-28T04:43:18;0.30;;;0.30;;
7647;SDS011;3866;48.020;11.720;2023-12-28T04:45:45;0.60;;;0.60;;
7647;SDS011;3866;48.020;11.720;2023-12-28T04:48:12;0.73;;;0.30;;
7647;SDS011;3866;48.020;11.720;2023-12-28T04:50:39;2.30;;;0.40;;
7647;SDS011;3866;48.020;11.720;2023-12-28T04:53:05;0.57;;;0.50;;
7647;SDS011;3866;48.020;11.720;2023-12-28T04:55:33;0.37;;;0.37;;
7647;SDS011;3866;48.020;11.720;2023-12-28T04:58:02;0.40;;;0.40;;
7647;SDS011;3866;48.020;11.720;2023-12-28T05:00:30;0.70;;;0.70;;
7647;SDS011;3866;48.020;11.720;2023-12-28T05:02:57;1.67;;;0.97;;
7647;SDS011;3866;48.020;11.720;2023-12-28T05:05:25;3.67;;;0.80;;
7647;SDS011;3866;48.020;11.720;2023-12-28T05:07:53;1.70;;;1.33;;
7647;SDS011;3866;48.020;11.720;2023-12-28T05:10:21;1.57;;;1.43;;
7647;SDS011;3866;48.020;11.720;2023-12-28T05:12:54;2.10;;;1.10;;
7647;SDS011;3866;48.020;11.720;2023-12-28T05:15:23;3.40;;;1.73;;
7647;SDS011;3866;48.020;11.720;2023-12-28T05:17:51;5.90;;;2.60;;
7647;SDS011;3866;48.020;11.720;2023-12-28T05:20:18;4.97;;;2.87;;
7647;SDS011;3866;48.020;11.720;2023-12-28T05:22:46;5.67;;;3.00;;
7647;SDS011;3866;48.020;11.720;2023-12-28T05:25:14;5.73;;;3.10;;
7647;SDS011;3866;48.020;11.720;2023-12-28T05:27:41;4.67;;;2.53;;
7647;SDS011;3866;48.020;11.720;2023-12-28T05:30:10;3.70;;;1.47;;
7647;SDS011;3866;48.020;11.720;2023-12-28T05:32:38;1.47;;;1.13;;
7647;SDS011;3866;48.020;11.720;2023-12-28T05:35:05;1.47;;;1.03;;
7647;SDS011;3866;48.020;11.720;2023-12-28T05:37:32;1.53;;;0.80;;
7647;SDS011;3866;48.020;11.720;2023-12-28T05:39:59;1.03;;;0.93;;
7647;SDS011;3866;48.020;11.720;2023-12-28T05:42:26;1.20;;;0.97;;
7647;SDS011;3866;48.020;11.720;2023-12-28T05:44:53;1.53;;;1.10;;
7647;SDS011;3866;48.020;11.720;2023-12-28T05:47:20;0.87;;;0.83;;
7647;SDS011;3866;48.020;11.720;2023-12-28T05:49:48;1.57;;;0.80;;
7647;SDS011;3866;48.020;11.720;2023-12-28T05:52:15;0.40;;;0.40;;
7647;SDS011;3866;48.020;11.720;2023-12-28T05:54:44;0.40;;;0.40;;
7647;SDS011;3866;48.020;11.720;2023-12-28T05:57:11;0.43;;;0.43;;
7647;SDS011;3866;48.020;11.720;2023-12-28T05:59:38;1.30;;;0.60;;
7647;SDS011;3866;48.020;11.720;2023-12-28T06:02:06;0.27;;;0.27;;
7647;SDS011;3866;48.020;11.720;2023-12-28T06:04:32;0.30;;;0.30;;
7647;SDS011;3866;48.020;11.720;2023-12-28T06:07:01;0.40;;;0.40;;
7647;SDS011;3866;48.020;11.720;2023-12-28T06:09:30;0.40;;;0.40;;
7647;SDS011;3866;48.020;11.720;2023-12-28T06:11:59;0.73;;;0.50;;
7647;SDS011;3866;48.020;11.720;2023-12-28T06:14:27;0.50;;;0.50;;
7647;SDS011;3866;48.020;11.720;2023-12-28T06:16:56;0.87;;;0.53;;
7647;SDS011;3866;48.020;11.720;2023-12-28T06:19:23;1.40;;;0.70;;
7647;SDS011;3866;48.020;11.720;2023-12-28T06:21:50;0.50;;;0.50;;
7647;SDS011;3866;48.020;11.720;2023-12-28T06:24:20;0.53;;;0.30;;
7647;SDS011;3866;48.020;11.720;2023-12-28T06:26:47;0.50;;;0.50;;
7647;SDS011;3866;48.020;11.720;2023-12-28T06:29:14;0.80;;;0.80;;
7647;SDS011;3866;48.020;11.720;2023-12-28T06:31:41;1.60;;;0.87;;
7647;SDS011;3866;48.020;11.720;2023-12-28T06:34:08;2.30;;;0.90;;
7647;SDS011;3866;48.020;11.720;2023-12-28T06:36:36;1.57;;;1.10;;
7647;SDS011;3866;48.020;11.720;2023-12-28T06:39:04;1.77;;;1.40;;
7647;SDS011;3866;48.020;11.720;2023-12-28T06:41:36;1.43;;;1.17;;
7647;SDS011;3866;48.020;11.720;2023-12-28T06:44:04;1.70;;;1.00;;
7647;SDS011;3866;48.020;11.720;2023-12-28T06:46:32;2.17;;;0.50;;
7647;SDS011;3866;48.020;11.720;2023-12-28T06:49:01;1.33;;;0.53;;
7647;SDS011;3866;48.020;11.720;2023-12-28T06:51:28;0.53;;;0.50;;
7647;SDS011;3866;48.020;11.720;2023-12-28T06:53:56;2.30;;;0.50;;
7647;SDS011;3866;48.020;11.720;2023-12-28T06:56:25;0.50;;;0.40;;
7647;SDS011;3866;48.020;11.720;2023-12-28T06:58:55;1.40;;;0.63;;
7647;SDS011;3866;48.020;11.720;2023-12-28T07:01:25;0.60;;;0.40;;
7647;SDS011;3866;48.020;11.720;2023-12-28T07:03:54;0.30;;;0.30;;
7647;SDS011;3866;48.020;11.720;2023-12-28T07:06:25;0.60;;;0.50;;
7647;SDS011;3866;48.020;11.720;2023-12-28T07:08:52;0.30;;;0.30;;
7647;SDS011;3866;48.020;11.720;2023-12-28T07:11:19;0.53;;;0.47;;
7647;SDS011;3866;48.020;11.720;2023-12-28T07:13:46;1.50;;;0.77;;
7647;SDS011;3866;48.020;11.720;2023-12-28T07:16:14;0.50;;;0.50;;
7647;SDS011;3866;48.020;11.720;2023-12-28T07:18:43;1.20;;;0.80;;
7647;SDS011;3866;48.020;11.720;2023-12-28T07:21:12;1.97;;;1.40;;
7647;SDS011;3866;48.020;11.720;2023-12-28T07:23:41;2.30;;;1.40;;
7647;SDS011;3866;48.020;11.720;2023-12-28T07:26:08;1.87;;;1.50;;
7647;SDS011;3866;48.020;11.720;2023-12-28T07:28:35;3.03;;;1.87;;
7647;SDS011;3866;48.020;11.720;2023-12-28T07:31:02;3.33;;;2.00;;
7647;SDS011;3866;48.020;11.720;2023-12-28T07:33:31;3.63;;;1.67;;
7647;SDS011;3866;48.020;11.720;2023-12-28T07:35:58;2.63;;;1.63;;
7647;SDS011;3866;48.020;11.720;2023-12-28T07:38:27;1.43;;;1.23;;
7647;SDS011;3866;48.020;11.720;2023-12-28T07:40:54;1.87;;;1.23;;
7647;SDS011;3866;48.020;11.720;2023-12-28T07:43:21;1.97;;;1.07;;
7647;SDS011;3866;48.020;11.720;2023-12-28T07:45:48;1.40;;;0.90;;
7647;SDS011;3866;48.020;11.720;2023-12-28T07:48:15;1.20;;;0.90;;
7647;SDS011;3866;48.020;11.720;2023-12-28T07:50:43;1.97;;;1.17;;
7647;SDS011;3866;48.020;11.720;2023-12-28T07:53:10;1.83;;;1.20;;
7647;SDS011;3866;48.020;11.720;2023-12-28T07:55:37;2.23;;;1.33;;
7647;SDS011;3866;48.020;11.720;2023-12-28T07:58:04;3.37;;;2.03;;
7647;SDS011;3866;48.020;11.720;2023-12-28T08:00:31;3.87;;;2.47;;
7647;SDS011;3866;48.020;11.720;2023-12-28T08:02:57;3.47;;;1.30;;
7647;SDS011;3866;48.020;11.720;2023-12-28T08:05:24;7.93;;;4.43;;
7647;SDS011;3866;48.020;11.720;2023-12-28T08:07:53;8.73;;;5.40;;
7647;SDS011;3866;48.020;11.720;2023-12-28T08:10:21;3.33;;;2.60;;
7647;SDS011;3866;48.020;11.720;2023-12-28T08:12:49;1.00;;;0.60;;
7647;SDS011;3866;48.020;11.720;2023-12-28T08:15:17;7.20;;;0.87;;
7647;SDS011;3866;48.020;11.720;2023-12-28T08:17:45;2.23;;;0.50;;
7647;SDS011;3866;48.020;11.720;2023-12-28T08:20:13;2.93;;;0.40;;
7647;SDS011;3866;48.020;11.720;2023-12-28T08:22:40;0.70;;;0.50;;
7647;SDS011;3866;48.020;11.720;2023-12-28T08:25:14;1.97;;;0.60;;
7647;SDS011;3866;48.020;11.720;2023-12-28T08:27:42;2.53;;;0.40;;
7647;SDS011;3866;48.020;11.720;2023-12-28T08:30:09;0.77;;;0.47;;
7647;SDS011;3866;48.020;11.720;2023-12-28T08:32:36;0.40;;;0.40;;
7647;SDS011;3866;48.020;11.720;2023-12-28T08:35:03;0.40;;;0.20;;
7647;SDS011;3866;48.020;11.720;2023-12-28T08:37:31;0.40;;;0.40;;
7647;SDS011;3866;48.020;11.720;2023-12-28T08:39:59;0.70;;;0.30;;
7647;SDS011;3866;48.020;11.720;2023-12-28T08:42:27;0.87;;;0.40;;
7647;SDS011;3866;48.020;11.720;2023-12-28T08:44:54;1.27;;;0.50;;
7647;SDS011;3866;48.020;11.720;2023-12-28T08:47:21;0.90;;;0.50;;
7647;SDS011;3866;48.020;11.720;2023-12-28T08:49:48;0.47;;;0.33;;
7647;SDS011;3866;48.020;11.720;2023-12-28T08:52:14;1.07;;;0.50;;
7647;SDS011;3866;48.020;11.720;2023-12-28T08:54:41;0.20;;;0.20;;
7647;SDS011;3866;48.020;11.720;2023-12-28T08:57:08;0.23;;;0.20;;
7647;SDS011;3866;48.020;11.720;2023-12-28T08:59:37;0.93;;;0.40;;
7647;SDS011;3866;48.020;11.720;2023-12-28T09:02:04;0.80;;;0.40;;
7647;SDS011;3866;48.020;11.720;2023-12-28T09:04:32;5.83;;;0.70;;
7647;SDS011;3866;48.020;11.720;2023-12-28T09:06:59;1.07;;;0.40;;
7647;SDS011;3866;48.020;11.720;2023-12-28T09:09:26;0.60;;;0.60;;
7647;SDS011;3866;48.020;11.720;2023-12-28T09:11:53;1.07;;;0.40;;
7647;SDS011;3866;48.020;11.720;2023-12-28T09:14:19;1.60;;;1.10;;
7647;SDS011;3866;48.020;11.720;2023-12-28T09:16:48;0.63;;;0.40;;
7647;SDS011;3866;48.020;11.720;2023-12-28T09:19:14;0.60;;;0.43;;
7647;SDS011;3866;48.020;11.720;2023-12-28T09:21:41;0.33;;;0.33;;
7647;SDS011;3866;48.020;11.720;2023-12-28T09:24:08;0.40;;;0.30;;
7647;SDS011;3866;48.020;11.720;2023-12-28T09:26:35;0.40;;;0.30;;
7647;SDS011;3866;48.020;11.720;2023-12-28T09:29:02;0.40;;;0.40;;
7647;SDS011;3866;48.020;11.720;2023-12-28T09:31:29;0.40;;;0.40;;
7647;SDS011;3866;48.020;11.720;2023-12-28T09:33:57;0.70;;;0.40;;
7647;SDS011;3866;48.020;11.720;2023-12-28T09:36:24;1.77;;;1.10;;
7647;SDS011;3866;48.020;11.720;2023-12-28T09:38:51;0.80;;;0.40;;
7647;SDS011;3866;48.020;11.720;2023-12-28T09:41:18;0.30;;;0.30;;
7647;SDS011;3866;48.020;11.720;2023-12-28T09:43:53;0.60;;;0.53;;
7647;SDS011;3866;48.020;11.720;2023-12-28T09:46:21;0.63;;;0.47;;
7647;SDS011;3866;48.020;11.720;2023-12-28T09:48:49;0.70;;;0.43;;
7647;SDS011;3866;48.020;11.720;2023-12-28T09:51:21;2.30;;;0.50;;
7647;SDS011;3866;48.020;11.720;2023-12-28T09:53:49;2.37;;;0.60;;
7647;SDS011;3866;48.020;11.720;2023-12-28T09:56:16;0.43;;;0.40;;
7647;SDS011;3866;48.020;11.720;2023-12-28T09:58:45;0.80;;;0.50;;
7647;SDS011;3866;48.020;11.720;2023-12-28T10:01:17;0.40;;;0.40;;
7647;SDS011;3866;48.020;11.720;2023-12-28T10:03:46;0.63;;;0.37;;
7647;SDS011;3866;48.020;11.720;2023-12-28T10:06:13;0.40;;;0.40;;
7647;SDS011;3866;48.020;11.720;2023-12-28T10:08:46;1.27;;;0.50;;
7647;SDS011;3866;48.020;11.720;2023-12-28T10:11:15;0.50;;;0.43;;
7647;SDS011;3866;48.020;11.720;2023-12-28T10:13:44;1.10;;;0.37;;
7647;SDS011;3866;48.020;11.720;2023-12-28T10:16:13;0.40;;;0.40;;
7647;SDS011;3866;48.020;11.720;2023-12-28T10:18:41;0.60;;;0.50;;
7647;SDS011;3866;48.020;11.720;2023-12-28T10:21:10;0.70;;;0.30;;
7647;SDS011;3866;48.020;11.720;2023-12-28T10:23:37;0.40;;;0.30;;
7647;SDS011;3866;48.020;11.720;2023-12-28T10:26:07;0.77;;;0.70;;
7647;SDS011;3866;48.020;11.720;2023-12-28T10:28:36;0.30;;;0.30;;
7647;SDS011;3866;48.020;11.720;2023-12-28T10:31:05;0.60;;;0.60;;
7647;SDS011;3866;48.020;11.720;2023-12-28T10:33:34;0.50;;;0.40;;
7647;SDS011;3866;48.020;11.720;2023-12-28T10:36:03;0.67;;;0.20;;
7647;SDS011;3866;48.020;11.720;2023-12-28T10:38:33;1.47;;;0.80;;
7647;SDS011;3866;48.020;11.720;2023-12-28T10:41:02;0.47;;;0.40;;
7647;SDS011;3866;48.020;11.720;2023-12-28T10:43:33;1.90;;;0.40;;
7647;SDS011;3866;48.020;11.720;2023-12-28T10:46:10;1.23;;;0.43;;
7647;SDS011;3866;48.020;11.720;2023-12-28T10:48:42;0.47;;;0.40;;
7647;SDS011;3866;48.020;11.720;2023-12-28T10:51:12;0.37;;;0.30;;
7647;SDS011;3866;48.020;11.720;2023-12-28T10:53:45;0.60;;;0.50;;
7647;SDS011;3866;48.020;11.720;2023-12-28T10:56:31;0.83;;;0.40;;
7647;SDS011;3866;48.020;11.720;2023-12-28T10:59:09;3.57;;;0.63;;
7647;SDS011;3866;48.020;11.720;2023-12-28T11:01:42;0.50;;;0.40;;
7647;SDS011;3866;48.020;11.720;2023-12-28T11:04:14;0.40;;;0.40;;
7647;SDS011;3866;48.020;11.720;2023-12-28T11:06:48;1.73;;;0.50;;
7647;SDS011;3866;48.020;11.720;2023-12-28T11:09:18;0.33;;;0.33;;
7647;SDS011;3866;48.020;11.720;2023-12-28T11:11:49;0.97;;;0.37;;
7647;SDS011;3866;48.020;11.720;2023-12-28T11:14:20;0.43;;;0.43;;
7647;SDS011;3866;48.020;11.720;2023-12-28T11:16:48;1.70;;;0.40;;
7647;SDS011;3866;48.020;11.720;2023-12-28T11:19:16;0.40;;;0.40;;
7647;SDS011;3866;48.020;11.720;2023-12-28T11:21:45;0.83;;;0.50;;
7647;SDS011;3866;48.020;11.720;2023-12-28T11:24:13;0.50;;;0.50;;
7647;SDS011;3866;48.020;11.720;2023-12-28T11:26:40;0.53;;;0.53;;
7647;SDS011;3866;48.020;11.720;2023-12-28T11:29:07;0.40;;;0.40;;
7647;SDS011;3866;48.020;11.720;2023-12-28T11:31:37;1.07;;;0.40;;
7647;SDS011;3866;48.020;11.720;2023-12-28T11:34:04;3.00;;;0.50;;
7647;SDS011;3866;48.020;11.720;2023-12-28T11:36:32;0.50;;;0.40;;
7647;SDS011;3866;48.020;11.720;2023-12-28T11:39:02;0.40;;;0.33;;
7647;SDS011;3866;48.020;11.720;2023-12-28T11:41:32;1.40;;;0.50;;
7647;SDS011;3866;48.020;11.720;2023-12-28T11:44:01;1.03;;;0.50;;
7647;SDS011;3866;48.020;11.720;2023-12-28T11:46:32;1.97;;;0.67;;
7647;SDS011;3866;48.020;11.720;2023-12-28T11:49:06;0.70;;;0.70;;
7647;SDS011;3866;48.020;11.720;2023-12-28T11:51:37;0.60;;;0.40;;
7647;SDS011;3866;48.020;11.720;2023-12-28T11:54:06;0.83;;;0.70;;
7647;SDS011;3866;48.020;11.720;2023-12-28T11:56:35;1.23;;;0.70;;
7647;SDS011;3866;48.020;11.720;2023-12-28T11:59:01;1.50;;;0.43;;
7647;SDS011;3866;48.020;11.720;2023-12-28T12:01:28;4.97;;;0.70;;
7647;SDS011;3866;48.020;11.720;2023-12-28T12:03:56;0.73;;;0.73;;
7647;SDS011;3866;48.020;11.720;2023-12-28T12:06:26;2.60;;;0.40;;
7647;SDS011;3866;48.020;11.720;2023-12-28T12:08:55;0.67;;;0.30;;
7647;SDS011;3866;48.020;11.720;2023-12-28T12:11:25;0.30;;;0.30;;
7647;SDS011;3866;48.020;11.720;2023-12-28T12:13:54;1.77;;;0.43;;
7647;SDS011;3866;48.020;11.720;2023-12-28T12:16:23;1.50;;;0.60;;
7647;SDS011;3866;48.020;11.720;2023-12-28T12:18:51;0.70;;;0.50;;
7647;SDS011;3866;48.020;11.720;2023-12-28T12:21:23;1.20;;;0.70;;
7647;SDS011;3866;48.020;11.720;2023-12-28T12:23:55;0.90;;;0.77;;
7647;SDS011;3866;48.020;11.720;2023-12-28T12:26:22;2.50;;;1.20;;
7647;SDS011;3866;48.020;11.720;2023-12-28T12:28:51;1.47;;;1.20;;
7647;SDS011;3866;48.020;11.720;2023-12-28T12:31:19;1.67;;;0.87;;
7647;SDS011;3866;48.020;11.720;2023-12-28T12:33:48;0.90;;;0.83;;
7647;SDS011;3866;48.020;11.720;2023-12-28T12:36:19;1.63;;;1.37;;
7647;SDS011;3866;48.020;11.720;2023-12-28T12:38:47;2.87;;;1.30;;
7647;SDS011;3866;48.020;11.720;2023-12-28T12:41:16;2.57;;;1.60;;
7647;SDS011;3866;48.020;11.720;2023-12-28T12:43:44;1.20;;;0.90;;
7647;SDS011;3866;48.020;11.720;2023-12-28T12:46:11;1.60;;;1.07;;
7647;SDS011;3866;48.020;11.720;2023-12-28T12:48:39;1.30;;;1.10;;
7647;SDS011;3866;48.020;11.720;2023-12-28T12:51:06;1.83;;;0.83;;
7647;SDS011;3866;48.020;11.720;2023-12-28T12:53:35;1.17;;;1.07;;
7647;SDS011;3866;48.020;11.720;2023-12-28T12:56:04;1.83;;;1.43;;
7647;SDS011;3866;48.020;11.720;2023-12-28T12:58:34;1.90;;;1.33;;
7647;SDS011;3866;48.020;11.720;2023-12-28T13:01:01;2.83;;;1.60;;
7647;SDS011;3866;48.020;11.720;2023-12-28T13:03:30;1.53;;;1.10;;
7647;SDS011;3866;48.020;11.720;2023-12-28T13:05:57;1.20;;;1.10;;
7647;SDS011;3866;48.020;11.720;2023-12-28T13:08:25;2.90;;;1.30;;
7647;SDS011;3866;48.020;11.720;2023-12-28T13:10:54;1.33;;;1.17;;
7647;SDS011;3866;48.020;11.720;2023-12-28T13:13:25;1.47;;;0.97;;
7647;SDS011;3866;48.020;11.720;2023-12-28T13:15:55;1.10;;;0.70;;
7647;SDS011;3866;48.020;11.720;2023-12-28T13:18:23;0.97;;;0.87;;
7647;SDS011;3866;48.020;11.720;2023-12-28T13:20:51;1.50;;;1.00;;
7647;SDS011;3866;48.020;11.720;2023-12-28T13:23:18;2.43;;;1.00;;
7647;SDS011;3866;48.020;11.720;2023-12-28T13:25:46;2.73;;;2.10;;
7647;SDS011;3866;48.020;11.720;2023-12-28T13:28:17;1.53;;;1.00;;
7647;SDS011;3866;48.020;11.720;2023-12-28T13:30:48;1.13;;;0.80;;
7647;SDS011;3866;48.020;11.720;2023-12-28T13:33:18;3.80;;;1.67;;
7647;SDS011;3866;48.020;11.720;2023-12-28T13:35:46;1.93;;;1.10;;
7647;SDS011;3866;48.020;11.720;2023-12-28T13:38:14;1.10;;;1.00;;
7647;SDS011;3866;48.020;11.720;2023-12-28T13:40:41;1.20;;;1.10;;
7647;SDS011;3866;48.020;11.720;2023-12-28T13:43:08;0.77;;;0.77;;
7647;SDS011;3866;48.020;11.720;2023-12-28T13:45:37;1.73;;;0.60;;
7647;SDS011;3866;48.020;11.720;2023-12-28T13:48:05;1.10;;;0.93;;
7647;SDS011;3866;48.020;11.720;2023-12-28T13:50:35;2.40;;;0.87;;
7647;SDS011;3866;48.020;11.720;2023-12-28T13:53:04;0.90;;;0.80;;
7647;SDS011;3866;48.020;11.720;2023-12-28T13:55:33;2.77;;;0.80;;
7647;SDS011;3866;48.020;11.720;2023-12-28T13:58:01;1.83;;;0.60;;
7647;SDS011;3866;48.020;11.720;2023-12-28T14:00:30;2.30;;;0.70;;
7647;SDS011;3866;48.020;11.720;2023-12-28T14:03:01;2.13;;;0.90;;
7647;SDS011;3866;48.020;11.720;2023-12-28T14:05:30;0.87;;;0.73;;
7647;SDS011;3866;48.020;11.720;2023-12-28T14:07:59;1.20;;;1.00;;
7647;SDS011;3866;48.020;11.720;2023-12-28T14:10:27;1.77;;;1.03;;
7647;SDS011;3866;48.020;11.720;2023-12-28T14:12:55;0.90;;;0.70;;
7647;SDS011;3866;48.020;11.720;2023-12-28T14:15:24;4.53;;;2.97;;
7647;SDS011;3866;48.020;11.720;2023-12-28T14:17:53;2.83;;;2.20;;
7647;SDS011;3866;48.020;11.720;2023-12-28T14:20:21;2.63;;;1.30;;
7647;SDS011;3866;48.020;11.720;2023-12-28T14:22:49;1.37;;;1.27;;
7647;SDS011;3866;48.020;11.720;2023-12-28T14:25:20;2.10;;;1.07;;
7647;SDS011;3866;48.020;11.720;2023-12-28T14:27:48;1.83;;;1.27;;
7647;SDS011;3866;48.020;11.720;2023-12-28T14:30:18;1.70;;;1.23;;
7647;SDS011;3866;48.020;11.720;2023-12-28T14:32:48;2.03;;;1.60;;
7647;SDS011;3866;48.020;11.720;2023-12-28T14:35:20;2.40;;;1.57;;
7647;SDS011;3866;48.020;11.720;2023-12-28T14:37:48;3.47;;;1.80;;
7647;SDS011;3866;48.020;11.720;2023-12-28T14:40:15;3.10;;;1.70;;
7647;SDS011;3866;48.020;11.720;2023-12-28T14:42:45;1.93;;;1.47;;
7647;SDS011;3866;48.020;11.720;2023-12-28T14:45:13;2.07;;;1.77;;
7647;SDS011;3866;48.020;11.720;2023-12-28T14:47:41;1.60;;;1.33;;
7647;SDS011;3866;48.020;11.720;2023-12-28T14:50:09;2.13;;;1.57;;
7647;SDS011;3866;48.020;11.720;2023-12-28T14:52:37;1.77;;;1.00;;
7647;SDS011;3866;48.020;11.720;2023-12-28T14:55:09;0.93;;;0.83;;
7647;SDS011;3866;48.020;11.720;2023-12-28T14:57:37;1.30;;;1.00;;
7647;SDS011;3866;48.020;11.720;2023-12-28T15:00:19;1.60;;;1.20;;
7647;SDS011;3866;48.020;11.720;2023-12-28T15:02:47;1.10;;;0.70;;
7647;SDS011;3866;48.020;11.720;2023-12-28T15:05:15;0.93;;;0.90;;
7647;SDS011;3866;48.020;11.720;2023-12-28T15:07:43;1.00;;;0.83;;